createdAt,value
2016-12-05T00:00:23.499Z,0
2016-12-05T00:01:23.650Z,0
2016-12-05T00:02:23.792Z,0
2016-12-05T00:03:23.680Z,0
2016-12-05T00:04:24.080Z,0
2016-12-05T00:05:23.528Z,0
2016-12-05T00:06:23.674Z,0
2016-12-05T00:07:23.699Z,0
2016-12-05T00:08:23.668Z,0
2016-12-05T00:09:23.871Z,0
2016-12-05T00:10:23.605Z,0
2016-12-05T00:11:23.643Z,0
2016-12-05T00:12:23.579Z,0
2016-12-05T00:13:23.671Z,0
2016-12-05T00:14:23.600Z,0
2016-12-05T00:15:23.704Z,0
2016-12-05T00:16:23.642Z,0
2016-12-05T00:17:23.759Z,0
2016-12-05T00:18:23.824Z,0
2016-12-05T00:19:23.923Z,0
2016-12-05T00:20:23.622Z,0
2016-12-05T00:21:23.727Z,0
2016-12-05T00:22:23.625Z,0
2016-12-05T00:23:23.674Z,0
2016-12-05T00:24:23.666Z,0
2016-12-05T00:25:23.724Z,0
2016-12-05T00:26:23.819Z,0
2016-12-05T00:27:23.724Z,0
2016-12-05T00:28:23.716Z,0
2016-12-05T00:29:23.672Z,0
2016-12-05T00:30:23.654Z,0
2016-12-05T00:31:23.877Z,0
2016-12-05T00:32:23.715Z,0
2016-12-05T00:33:23.702Z,0
2016-12-05T00:34:23.697Z,0
2016-12-05T00:35:23.744Z,0
2016-12-05T00:36:23.661Z,0
2016-12-05T00:37:23.922Z,0
2016-12-05T00:38:23.760Z,0
2016-12-05T00:39:23.715Z,0
2016-12-05T00:40:24.014Z,0
2016-12-05T00:41:23.823Z,0
2016-12-05T00:42:23.780Z,0
2016-12-05T00:43:24.464Z,0
2016-12-05T00:44:23.770Z,0
2016-12-05T00:45:23.737Z,0
2016-12-05T00:46:23.751Z,0
2016-12-05T00:47:23.975Z,0
2016-12-05T00:48:23.954Z,0
2016-12-05T00:49:23.833Z,0
2016-12-05T00:50:24.203Z,0
2016-12-05T00:51:23.833Z,0
2016-12-05T00:52:24.014Z,0
2016-12-05T00:53:23.708Z,0
2016-12-05T00:54:23.665Z,0
2016-12-05T00:55:24.103Z,0
2016-12-05T00:56:23.840Z,0
2016-12-05T00:57:23.774Z,0
2016-12-05T00:58:23.785Z,0
2016-12-05T00:59:23.660Z,0
2016-12-05T01:00:23.662Z,0
2016-12-05T01:01:23.745Z,0
2016-12-05T01:02:23.814Z,0
2016-12-05T01:03:23.721Z,0
2016-12-05T01:04:23.729Z,0
2016-12-05T01:05:23.640Z,0
2016-12-05T01:06:23.755Z,0
2016-12-05T01:07:23.828Z,0
2016-12-05T01:08:23.638Z,0
2016-12-05T01:09:23.830Z,0
2016-12-05T01:10:24.014Z,0
2016-12-05T01:11:23.908Z,0
2016-12-05T01:12:23.689Z,0
2016-12-05T01:13:23.704Z,0
2016-12-05T01:14:24.398Z,0
2016-12-05T01:15:23.876Z,0
2016-12-05T01:16:23.637Z,0
2016-12-05T01:17:23.860Z,0
2016-12-05T01:18:24.163Z,0
2016-12-05T01:19:23.978Z,0
2016-12-05T01:20:23.745Z,0
2016-12-05T01:21:24.056Z,0
2016-12-05T01:22:23.741Z,0
2016-12-05T01:23:23.819Z,0
2016-12-05T01:24:23.804Z,0
2016-12-05T01:25:24.241Z,0
2016-12-05T01:26:23.869Z,0
2016-12-05T01:27:23.898Z,0
2016-12-05T01:28:23.778Z,0
2016-12-05T01:29:23.764Z,0
2016-12-05T01:30:23.754Z,0
2016-12-05T01:31:23.791Z,0
2016-12-05T01:32:23.663Z,0
2016-12-05T01:33:23.671Z,0
2016-12-05T01:34:23.721Z,0
2016-12-05T01:35:23.811Z,0
2016-12-05T01:36:24.346Z,0
2016-12-05T01:37:23.639Z,0
2016-12-05T01:38:23.641Z,0
2016-12-05T01:39:23.851Z,0
2016-12-05T01:40:23.718Z,0
2016-12-05T01:41:23.803Z,0
2016-12-05T01:42:23.628Z,0
2016-12-05T01:43:23.729Z,0
2016-12-05T01:44:23.762Z,0
2016-12-05T01:45:23.841Z,0
2016-12-05T01:46:23.591Z,0
2016-12-05T01:47:23.705Z,0
2016-12-05T01:48:23.595Z,0
2016-12-05T01:49:23.788Z,0
2016-12-05T01:50:23.711Z,0
2016-12-05T01:51:23.807Z,0
2016-12-05T01:52:23.661Z,0
2016-12-05T01:53:23.749Z,0
2016-12-05T01:54:23.624Z,0
2016-12-05T01:55:23.670Z,0
2016-12-05T01:56:23.629Z,0
2016-12-05T01:57:23.832Z,0
2016-12-05T01:58:23.751Z,0
2016-12-05T01:59:23.638Z,0
2016-12-05T02:00:23.698Z,0
2016-12-05T02:01:23.818Z,0
2016-12-05T02:02:23.752Z,0
2016-12-05T02:03:23.608Z,0
2016-12-05T02:04:23.704Z,0
2016-12-05T02:05:23.745Z,0
2016-12-05T02:06:23.653Z,0
2016-12-05T02:07:23.722Z,0
2016-12-05T02:08:23.671Z,0
2016-12-05T02:09:23.722Z,0
2016-12-05T02:10:23.607Z,0
2016-12-05T02:11:23.749Z,0
2016-12-05T02:12:23.713Z,0
2016-12-05T02:13:23.767Z,0
2016-12-05T02:14:23.662Z,0
2016-12-05T02:15:23.865Z,0
2016-12-05T02:16:23.650Z,0
2016-12-05T02:17:23.872Z,0
2016-12-05T02:18:23.622Z,0
2016-12-05T02:19:23.744Z,0
2016-12-05T02:20:23.596Z,0
2016-12-05T02:21:23.739Z,0
2016-12-05T02:22:23.702Z,0
2016-12-05T02:23:23.781Z,0
2016-12-05T02:24:23.653Z,0
2016-12-05T02:25:23.900Z,0
2016-12-05T02:26:23.647Z,0
2016-12-05T02:27:23.666Z,0
2016-12-05T02:28:23.799Z,0
2016-12-05T02:29:23.695Z,0
2016-12-05T02:30:23.683Z,0
2016-12-05T02:31:23.697Z,0
2016-12-05T02:32:23.680Z,0
2016-12-05T02:33:23.779Z,0
2016-12-05T02:34:23.723Z,0
2016-12-05T02:35:23.734Z,0
2016-12-05T02:36:23.669Z,0
2016-12-05T02:37:23.847Z,0
2016-12-05T02:38:23.725Z,0
2016-12-05T02:39:23.834Z,0
2016-12-05T02:40:23.781Z,0
2016-12-05T02:41:23.694Z,0
2016-12-05T02:42:23.722Z,0
2016-12-05T02:43:23.927Z,0
2016-12-05T02:44:23.814Z,0
2016-12-05T02:45:23.800Z,0
2016-12-05T02:46:23.604Z,0
2016-12-05T02:47:23.742Z,0
2016-12-05T02:48:23.764Z,0
2016-12-05T02:49:23.854Z,0
2016-12-05T02:50:23.719Z,0
2016-12-05T02:51:23.692Z,0
2016-12-05T02:52:23.640Z,0
2016-12-05T02:53:23.707Z,0
2016-12-05T02:54:23.767Z,0
2016-12-05T02:55:23.725Z,0
2016-12-05T02:56:23.783Z,0
2016-12-05T02:57:23.761Z,0
2016-12-05T02:58:23.691Z,0
2016-12-05T02:59:23.795Z,0
2016-12-05T03:00:23.663Z,0
2016-12-05T03:01:23.824Z,0
2016-12-05T03:02:23.874Z,0
2016-12-05T03:03:23.735Z,0
2016-12-05T03:04:23.683Z,0
2016-12-05T03:05:23.813Z,0
2016-12-05T03:06:23.772Z,0
2016-12-05T03:07:23.823Z,0
2016-12-05T03:08:24.418Z,0
2016-12-05T03:09:23.763Z,0
2016-12-05T03:10:23.825Z,0
2016-12-05T03:11:23.665Z,0
2016-12-05T03:12:23.638Z,0
2016-12-05T03:13:23.677Z,0
2016-12-05T03:14:23.714Z,0
2016-12-05T03:15:23.716Z,0
2016-12-05T03:16:23.712Z,0
2016-12-05T03:17:23.855Z,0
2016-12-05T03:18:23.815Z,0
2016-12-05T03:19:23.916Z,0
2016-12-05T03:20:23.827Z,0
2016-12-05T03:21:23.956Z,0
2016-12-05T03:22:23.709Z,0
2016-12-05T03:23:23.814Z,0
2016-12-05T03:24:23.859Z,0
2016-12-05T03:25:23.912Z,0
2016-12-05T03:26:23.736Z,0
2016-12-05T03:27:23.680Z,0
2016-12-05T03:28:23.727Z,0
2016-12-05T03:29:23.827Z,0
2016-12-05T03:30:23.739Z,0
2016-12-05T03:31:23.882Z,0
2016-12-05T03:32:23.736Z,0
2016-12-05T03:33:23.826Z,0
2016-12-05T03:34:23.805Z,0
2016-12-05T03:35:23.629Z,0
2016-12-05T03:36:23.905Z,0
2016-12-05T03:37:23.655Z,0
2016-12-05T03:38:23.836Z,0
2016-12-05T03:39:23.778Z,0
2016-12-05T03:40:23.733Z,0
2016-12-05T03:41:23.661Z,0
2016-12-05T03:42:23.816Z,0
2016-12-05T03:43:23.715Z,0
2016-12-05T03:44:23.707Z,0
2016-12-05T03:45:23.835Z,0
2016-12-05T03:46:23.857Z,0
2016-12-05T03:47:23.675Z,0
2016-12-05T03:48:23.885Z,0
2016-12-05T03:49:23.740Z,0
2016-12-05T03:50:23.916Z,0
2016-12-05T03:51:23.871Z,0
2016-12-05T03:52:23.786Z,0
2016-12-05T03:53:23.690Z,0
2016-12-05T03:54:23.736Z,0
2016-12-05T03:55:23.745Z,0
2016-12-05T03:56:23.766Z,0
2016-12-05T03:57:23.837Z,0
2016-12-05T03:58:23.805Z,0
2016-12-05T03:59:23.893Z,0
2016-12-05T04:00:23.778Z,0
2016-12-05T04:01:23.885Z,0
2016-12-05T04:02:23.849Z,0
2016-12-05T04:03:23.713Z,0
2016-12-05T04:04:23.768Z,0
2016-12-05T04:05:23.869Z,0
2016-12-05T04:06:23.705Z,0
2016-12-05T04:07:23.691Z,0
2016-12-05T04:08:23.786Z,0
2016-12-05T04:09:23.735Z,0
2016-12-05T04:10:24.509Z,0
2016-12-05T04:11:23.700Z,0
2016-12-05T04:12:23.840Z,0
2016-12-05T04:13:23.715Z,0
2016-12-05T04:14:23.863Z,0
2016-12-05T04:15:23.716Z,0
2016-12-05T04:16:23.911Z,0
2016-12-05T04:17:23.778Z,0
2016-12-05T04:18:23.925Z,0
2016-12-05T04:19:24.109Z,0
2016-12-05T04:20:23.799Z,0
2016-12-05T04:21:23.735Z,0
2016-12-05T04:22:23.785Z,0
2016-12-05T04:23:23.881Z,0
2016-12-05T04:24:23.836Z,0
2016-12-05T04:25:23.810Z,0
2016-12-05T04:26:23.900Z,0
2016-12-05T04:27:23.891Z,0
2016-12-05T04:28:23.840Z,0
2016-12-05T04:29:23.904Z,0
2016-12-05T04:30:23.756Z,0
2016-12-05T04:31:23.698Z,0
2016-12-05T04:32:23.814Z,0
2016-12-05T04:33:23.733Z,0
2016-12-05T04:34:23.979Z,0
2016-12-05T04:35:23.757Z,0
2016-12-05T04:36:23.886Z,0
2016-12-05T04:37:23.744Z,0
2016-12-05T04:38:23.805Z,0
2016-12-05T04:39:23.765Z,0
2016-12-05T04:40:23.852Z,0
2016-12-05T04:41:24.295Z,0
2016-12-05T04:42:24.594Z,0
2016-12-05T04:43:23.760Z,0
2016-12-05T04:44:23.830Z,0
2016-12-05T04:45:23.754Z,0
2016-12-05T04:46:23.853Z,0
2016-12-05T04:47:23.728Z,0
2016-12-05T04:48:23.867Z,0
2016-12-05T04:49:23.843Z,0
2016-12-05T04:50:23.934Z,0
2016-12-05T04:51:23.818Z,0
2016-12-05T04:52:23.839Z,0
2016-12-05T04:53:23.845Z,0
2016-12-05T04:54:23.908Z,0
2016-12-05T04:55:23.855Z,0
2016-12-05T04:56:23.874Z,0
2016-12-05T04:57:23.801Z,0
2016-12-05T04:58:23.786Z,0
2016-12-05T04:59:23.907Z,0
2016-12-05T05:00:23.934Z,0
2016-12-05T05:01:23.933Z,0
2016-12-05T05:02:24.030Z,0
2016-12-05T05:03:23.796Z,0
2016-12-05T05:04:23.873Z,0
2016-12-05T05:05:23.830Z,0
2016-12-05T05:06:23.884Z,0
2016-12-05T05:07:25.085Z,0
2016-12-05T05:08:23.832Z,0
2016-12-05T05:09:23.853Z,0
2016-12-05T05:10:24.029Z,0
2016-12-05T05:11:23.835Z,0
2016-12-05T05:12:23.933Z,0
2016-12-05T05:13:23.834Z,0
2016-12-05T05:14:23.965Z,0
2016-12-05T05:15:23.843Z,0
2016-12-05T05:16:23.946Z,0
2016-12-05T05:17:23.856Z,0
2016-12-05T05:18:23.858Z,0
2016-12-05T05:19:23.843Z,0
2016-12-05T05:20:23.986Z,0
2016-12-05T05:21:23.870Z,0
2016-12-05T05:22:23.961Z,0
2016-12-05T05:23:23.873Z,0
2016-12-05T05:24:23.977Z,0
2016-12-05T05:25:23.831Z,0
2016-12-05T05:26:23.844Z,0
2016-12-05T05:27:23.876Z,0
2016-12-05T05:28:24.044Z,0
2016-12-05T05:29:24.051Z,0
2016-12-05T05:30:24.074Z,0
2016-12-05T05:31:23.848Z,0
2016-12-05T05:32:23.903Z,0
2016-12-05T05:33:23.786Z,0
2016-12-05T05:34:23.863Z,0
2016-12-05T05:35:23.864Z,0
2016-12-05T05:36:26.046Z,0
2016-12-05T05:37:23.825Z,0
2016-12-05T05:38:23.968Z,0
2016-12-05T05:39:23.920Z,0
2016-12-05T05:40:23.813Z,0
2016-12-05T05:41:23.848Z,0
2016-12-05T05:42:23.893Z,0
2016-12-05T05:43:23.826Z,0
2016-12-05T05:44:24.208Z,0
2016-12-05T05:45:23.845Z,0
2016-12-05T05:46:23.897Z,0
2016-12-05T05:47:23.801Z,0
2016-12-05T05:48:23.904Z,0
2016-12-05T05:49:23.886Z,0
2016-12-05T05:50:23.857Z,0
2016-12-05T05:51:23.864Z,0
2016-12-05T05:52:23.917Z,0
2016-12-05T05:53:23.965Z,0
2016-12-05T05:54:23.978Z,0
2016-12-05T05:55:23.983Z,0
2016-12-05T05:56:23.869Z,0
2016-12-05T05:57:24.065Z,0
2016-12-05T05:58:24.088Z,0
2016-12-05T05:59:23.963Z,0
2016-12-05T06:00:23.907Z,0
2016-12-05T06:01:23.866Z,0
2016-12-05T06:02:23.918Z,0
2016-12-05T06:03:23.883Z,0
2016-12-05T06:04:23.998Z,0
2016-12-05T06:05:23.855Z,0
2016-12-05T06:06:23.842Z,0
2016-12-05T06:07:23.872Z,0
2016-12-05T06:08:24.071Z,0
2016-12-05T06:09:23.941Z,0
2016-12-05T06:10:24.058Z,0
2016-12-05T06:11:23.968Z,0
2016-12-05T06:12:24.075Z,0
2016-12-05T06:13:23.883Z,0
2016-12-05T06:14:24.000Z,0
2016-12-05T06:15:24.555Z,0
2016-12-05T06:16:24.120Z,0
2016-12-05T06:17:23.993Z,0
2016-12-05T06:18:24.173Z,0
2016-12-05T06:19:24.006Z,0
2016-12-05T06:20:23.971Z,0
2016-12-05T06:21:23.972Z,0
2016-12-05T06:22:23.945Z,0
2016-12-05T06:23:23.955Z,0
2016-12-05T06:24:24.056Z,0
2016-12-05T06:25:23.932Z,0
2016-12-05T06:26:24.034Z,0
2016-12-05T06:27:23.946Z,0
2016-12-05T06:28:23.962Z,0
2016-12-05T06:29:23.933Z,0
2016-12-05T06:30:23.917Z,0
2016-12-05T06:31:26.574Z,0
2016-12-05T06:32:26.721Z,0
2016-12-05T06:33:26.194Z,0
2016-12-05T06:34:27.970Z,0
2016-12-05T06:35:25.901Z,0
2016-12-05T06:36:28.522Z,0
2016-12-05T06:37:27.490Z,0
2016-12-05T06:38:24.536Z,0
2016-12-05T06:39:26.846Z,0
2016-12-05T06:40:27.119Z,0
2016-12-05T06:41:24.728Z,0
2016-12-05T06:42:29.773Z,0
2016-12-05T06:43:29.773Z,4
2016-12-05T06:44:26.847Z,4
2016-12-05T06:45:27.287Z,0
2016-12-05T06:46:23.955Z,4
2016-12-05T06:47:23.888Z,4
2016-12-05T06:48:24.058Z,4
2016-12-05T06:49:23.962Z,4
2016-12-05T06:50:24.020Z,8
2016-12-05T06:51:23.905Z,8
2016-12-05T06:52:23.948Z,8
2016-12-05T06:53:24.055Z,8
2016-12-05T06:54:24.115Z,8
2016-12-05T06:55:23.975Z,12
2016-12-05T06:56:23.949Z,12
2016-12-05T06:57:23.939Z,12
2016-12-05T06:58:24.069Z,16
2016-12-05T06:59:24.096Z,20
2016-12-05T07:00:24.041Z,24
2016-12-05T07:01:23.976Z,28
2016-12-05T07:02:24.028Z,32
2016-12-05T07:03:24.019Z,36
2016-12-05T07:04:24.114Z,44
2016-12-05T07:05:23.957Z,48
2016-12-05T07:06:24.264Z,56
2016-12-05T07:07:24.320Z,60
2016-12-05T07:08:24.062Z,68
2016-12-05T07:09:24.038Z,80
2016-12-05T07:10:24.049Z,88
2016-12-05T07:11:24.077Z,100
2016-12-05T07:12:24.030Z,108
2016-12-05T07:13:24.105Z,120
2016-12-05T07:14:24.155Z,132
2016-12-05T07:15:24.142Z,144
2016-12-05T07:16:24.156Z,156
2016-12-05T07:17:24.117Z,172
2016-12-05T07:18:24.117Z,192
2016-12-05T07:19:24.144Z,204
2016-12-05T07:20:24.179Z,220
2016-12-05T07:21:24.149Z,240
2016-12-05T07:22:24.112Z,260
2016-12-05T07:23:24.120Z,276
2016-12-05T07:24:24.332Z,300
2016-12-05T07:25:24.265Z,320
2016-12-05T07:26:24.231Z,340
2016-12-05T07:27:24.293Z,360
2016-12-05T07:28:24.235Z,384
2016-12-05T07:29:24.122Z,404
2016-12-05T07:30:24.097Z,432
2016-12-05T07:31:24.099Z,456
2016-12-05T07:32:24.225Z,480
2016-12-05T07:33:24.032Z,508
2016-12-05T07:34:24.156Z,532
2016-12-05T07:35:24.086Z,560
2016-12-05T07:36:25.589Z,588
2016-12-05T07:37:24.074Z,616
2016-12-05T07:38:24.017Z,640
2016-12-05T07:39:24.096Z,672
2016-12-05T07:40:24.157Z,700
2016-12-05T07:41:23.996Z,728
2016-12-05T07:42:27.363Z,756
2016-12-05T07:43:24.026Z,784
2016-12-05T07:44:24.164Z,816
2016-12-05T07:45:24.172Z,844
2016-12-05T07:46:24.234Z,876
2016-12-05T07:47:24.036Z,904
2016-12-05T07:48:25.323Z,932
2016-12-05T07:49:24.088Z,964
2016-12-05T07:50:24.285Z,992
2016-12-05T07:51:24.213Z,1024
2016-12-05T07:52:24.185Z,1056
2016-12-05T07:53:24.087Z,1084
2016-12-05T07:54:24.191Z,1116
2016-12-05T07:55:24.144Z,1144
2016-12-05T07:56:24.327Z,1176
2016-12-05T07:57:24.056Z,1208
2016-12-05T07:58:24.134Z,1236
2016-12-05T07:59:24.112Z,1268
2016-12-05T08:00:24.168Z,1300
2016-12-05T08:01:24.061Z,1336
2016-12-05T08:02:24.103Z,1368
2016-12-05T08:03:24.071Z,1396
2016-12-05T08:04:24.517Z,1428
2016-12-05T08:05:24.079Z,1456
2016-12-05T08:06:24.302Z,1488
2016-12-05T08:07:24.147Z,1520
2016-12-05T08:08:24.133Z,1560
2016-12-05T08:09:24.480Z,1588
2016-12-05T08:10:24.217Z,1620
2016-12-05T08:11:24.215Z,1656
2016-12-05T08:12:24.317Z,1684
2016-12-05T08:13:24.204Z,1716
2016-12-05T08:14:24.256Z,1756
2016-12-05T08:15:24.205Z,1784
2016-12-05T08:16:25.225Z,1800
2016-12-05T08:17:24.165Z,1836
2016-12-05T08:18:24.209Z,1872
2016-12-05T08:19:24.245Z,1908
2016-12-05T08:20:24.284Z,1936
2016-12-05T08:21:24.251Z,1952
2016-12-05T08:22:24.728Z,1968
2016-12-05T08:23:24.175Z,2012
2016-12-05T08:24:24.238Z,2028
2016-12-05T08:25:24.209Z,2068
2016-12-05T08:26:24.320Z,2120
2016-12-05T08:27:24.332Z,2132
2016-12-05T08:28:26.038Z,2168
2016-12-05T08:29:24.218Z,2188
2016-12-05T08:30:24.355Z,2204
2016-12-05T08:31:24.231Z,2248
2016-12-05T08:32:24.312Z,2276
2016-12-05T08:33:24.105Z,2296
2016-12-05T08:34:24.911Z,2328
2016-12-05T08:35:24.156Z,2344
2016-12-05T08:36:24.284Z,2400
2016-12-05T08:37:24.137Z,2428
2016-12-05T08:38:24.242Z,2476
2016-12-05T08:39:24.558Z,2468
2016-12-05T08:40:24.306Z,2492
2016-12-05T08:41:24.295Z,2544
2016-12-05T08:42:24.375Z,2556
2016-12-05T08:43:24.172Z,2600
2016-12-05T08:44:24.174Z,2632
2016-12-05T08:45:24.226Z,2652
2016-12-05T08:46:24.333Z,2684
2016-12-05T08:47:24.164Z,2724
2016-12-05T08:48:24.267Z,2736
2016-12-05T08:49:24.203Z,2784
2016-12-05T08:50:24.329Z,2796
2016-12-05T08:51:24.219Z,2844
2016-12-05T08:52:24.095Z,2860
2016-12-05T08:53:24.334Z,2892
2016-12-05T08:54:24.257Z,2920
2016-12-05T08:55:24.245Z,2952
2016-12-05T08:56:24.341Z,2992
2016-12-05T08:57:24.185Z,3012
2016-12-05T08:58:24.472Z,3032
2016-12-05T08:59:24.401Z,3076
2016-12-05T09:00:24.483Z,3068
2016-12-05T09:01:24.211Z,3092
2016-12-05T09:03:45.689Z,3184
2016-12-05T09:04:43.003Z,3180
2016-12-05T09:05:42.657Z,3188
2016-12-05T09:06:43.036Z,3252
2016-12-05T09:07:42.878Z,3232
2016-12-05T09:08:43.064Z,3268
2016-12-05T09:09:43.001Z,3240
2016-12-05T09:10:43.310Z,3276
2016-12-05T09:11:43.473Z,3308
2016-12-05T09:12:43.461Z,3308
2016-12-05T09:13:43.561Z,3328
2016-12-05T09:14:43.562Z,3372
2016-12-05T09:15:43.756Z,3420
2016-12-05T09:16:43.699Z,3440
2016-12-05T09:17:43.419Z,3476
2016-12-05T09:18:44.041Z,3532
2016-12-05T09:19:43.770Z,3540
2016-12-05T09:20:43.334Z,3620
2016-12-05T09:21:43.506Z,3656
2016-12-05T09:22:43.525Z,3708
2016-12-05T09:23:43.368Z,3704
2016-12-05T09:24:43.683Z,3772
2016-12-05T09:25:44.516Z,3792
2016-12-05T09:26:43.355Z,3820
2016-12-05T09:27:43.550Z,3860
2016-12-05T09:28:43.218Z,3884
2016-12-05T09:29:43.690Z,3920
2016-12-05T09:31:36.151Z,3984
2016-12-05T09:31:48.431Z,3972
2016-12-05T09:32:48.054Z,4004
2016-12-05T09:33:48.183Z,4004
2016-12-05T09:34:48.175Z,4060
2016-12-05T09:35:48.307Z,4112
2016-12-05T09:36:48.027Z,4144
2016-12-05T09:37:48.021Z,4116
2016-12-05T09:38:48.188Z,4164
2016-12-05T09:39:48.408Z,4196
2016-12-05T09:40:48.186Z,4248
2016-12-05T09:41:48.460Z,4284
2016-12-05T09:42:48.267Z,4316
2016-12-05T09:43:48.383Z,4412
2016-12-05T09:44:48.130Z,4436
2016-12-05T09:45:48.164Z,4484
2016-12-05T09:46:48.099Z,4528
2016-12-05T09:47:48.367Z,4520
2016-12-05T09:48:48.237Z,4536
2016-12-05T09:49:48.385Z,4556
2016-12-05T09:50:47.957Z,4604
2016-12-05T09:51:48.198Z,4620
2016-12-05T09:52:47.889Z,4648
2016-12-05T09:53:48.288Z,4684
2016-12-05T09:54:49.453Z,4716
2016-12-05T09:55:48.131Z,4768
2016-12-05T09:56:48.210Z,4808
2016-12-05T09:57:48.313Z,4808
2016-12-05T09:58:48.397Z,4792
2016-12-05T10:04:04.911Z,4604
2016-12-05T10:04:16.924Z,4592
2016-12-05T10:05:16.655Z,4584
2016-12-05T10:06:16.345Z,4556
2016-12-05T10:07:16.945Z,4560
2016-12-05T10:08:16.315Z,4576
2016-12-05T10:09:16.493Z,4628
2016-12-05T10:10:16.193Z,4656
2016-12-05T10:11:16.233Z,4652
2016-12-05T10:12:16.373Z,4632
2016-12-05T10:13:16.344Z,4628
2016-12-05T10:14:16.407Z,4624
2016-12-05T10:15:16.396Z,4652
2016-12-05T10:16:16.335Z,4672
2016-12-05T10:17:16.239Z,4676
2016-12-05T10:18:16.311Z,4672
2016-12-05T10:19:16.744Z,4648
2016-12-05T10:20:16.872Z,4632
2016-12-05T10:21:16.526Z,4628
2016-12-05T10:22:16.622Z,4612
2016-12-05T10:23:16.593Z,4608
2016-12-05T10:24:16.800Z,4612
2016-12-05T10:25:16.663Z,4616
2016-12-05T10:26:17.634Z,4632
2016-12-05T10:27:16.655Z,4640
2016-12-05T10:28:16.493Z,4656
2016-12-05T10:29:16.673Z,4672
2016-12-05T10:30:16.563Z,4696
2016-12-05T10:31:16.582Z,4728
2016-12-05T10:32:16.425Z,4720
2016-12-05T10:33:16.470Z,4736
2016-12-05T10:34:16.453Z,4736
2016-12-05T10:35:16.610Z,4728
2016-12-05T10:36:16.600Z,4744
2016-12-05T10:37:16.682Z,4772
2016-12-05T10:38:16.821Z,4796
2016-12-05T10:39:16.768Z,4832
2016-12-05T10:40:16.755Z,4860
2016-12-05T10:41:16.587Z,4864
2016-12-05T10:42:16.683Z,4864
2016-12-05T10:43:16.685Z,4856
2016-12-05T10:44:16.446Z,4844
2016-12-05T10:45:16.639Z,4868
2016-12-05T10:46:16.580Z,4880
2016-12-05T10:47:16.624Z,4900
2016-12-05T10:48:16.443Z,4908
2016-12-05T10:49:16.676Z,4936
2016-12-05T10:50:16.344Z,4968
2016-12-05T10:51:16.353Z,5016
2016-12-05T10:52:16.330Z,5040
2016-12-05T10:53:16.438Z,5056
2016-12-05T10:54:16.361Z,5076
2016-12-05T10:55:16.280Z,5088
2016-12-05T10:56:16.302Z,5104
2016-12-05T10:57:16.313Z,5112
2016-12-05T10:58:16.317Z,5144
2016-12-05T10:59:16.292Z,5172
2016-12-05T11:00:16.416Z,5168
2016-12-05T11:01:16.333Z,5184
2016-12-05T11:02:16.256Z,5220
2016-12-05T11:03:16.207Z,5252
2016-12-05T11:04:16.356Z,5324
2016-12-05T11:05:16.392Z,5484
2016-12-05T11:06:16.304Z,5616
2016-12-05T11:07:16.351Z,5844
2016-12-05T11:08:16.277Z,6000
2016-12-05T11:09:16.382Z,6120
2016-12-05T11:10:16.275Z,6208
2016-12-05T11:11:16.231Z,6284
2016-12-05T11:12:16.331Z,6384
2016-12-05T11:13:16.210Z,6432
2016-12-05T11:14:16.280Z,6484
2016-12-05T11:15:16.367Z,6524
2016-12-05T11:16:16.508Z,6592
2016-12-05T11:17:17.411Z,6648
2016-12-05T11:18:16.235Z,6728
2016-12-05T11:19:16.204Z,6800
2016-12-05T11:20:16.299Z,6816
2016-12-05T11:21:16.387Z,6816
2016-12-05T11:22:16.308Z,6764
2016-12-05T11:23:16.303Z,6732
2016-12-05T11:24:16.303Z,6784
2016-12-05T11:25:16.262Z,6584
2016-12-05T11:26:16.310Z,6464
2016-12-05T11:27:16.426Z,6436
2016-12-05T11:28:16.364Z,6460
2016-12-05T11:29:16.413Z,6448
2016-12-05T11:30:16.453Z,6328
2016-12-05T11:31:16.411Z,6264
2016-12-05T11:32:16.434Z,6260
2016-12-05T11:33:16.275Z,6456
2016-12-05T11:34:16.267Z,6480
2016-12-05T11:35:16.283Z,6368
2016-12-05T11:36:16.280Z,6332
2016-12-05T11:37:16.231Z,6292
2016-12-05T11:38:16.444Z,6192
2016-12-05T11:39:16.233Z,6068
2016-12-05T11:40:18.302Z,5972
2016-12-05T11:41:16.452Z,5888
2016-12-05T11:42:16.321Z,5936
2016-12-05T11:43:16.352Z,6028
2016-12-05T11:44:16.327Z,6100
2016-12-05T11:45:16.404Z,6108
2016-12-05T11:46:16.398Z,6080
2016-12-05T11:47:16.320Z,6132
2016-12-05T11:48:16.414Z,6264
2016-12-05T11:49:16.302Z,6428
2016-12-05T11:50:16.345Z,6500
2016-12-05T11:51:16.312Z,6512
2016-12-05T11:52:16.389Z,6588
2016-12-05T11:53:16.333Z,6636
2016-12-05T11:54:16.392Z,6656
2016-12-05T11:55:16.365Z,6788
2016-12-05T11:56:16.458Z,6852
2016-12-05T11:57:16.452Z,6808
2016-12-05T11:58:16.422Z,6816
2016-12-05T11:59:16.324Z,6888
2016-12-05T12:00:17.060Z,6968
2016-12-05T12:01:17.765Z,6948
2016-12-05T12:02:17.003Z,6980
2016-12-05T12:03:16.716Z,6940
2016-12-05T12:04:16.702Z,6872
2016-12-05T12:05:16.779Z,6756
2016-12-05T12:06:17.072Z,6740
2016-12-05T12:07:16.873Z,6788
2016-12-05T12:08:16.826Z,6900
2016-12-05T12:09:16.311Z,6992
2016-12-05T12:10:16.453Z,6860
2016-12-05T12:11:16.754Z,6504
2016-12-05T12:12:16.883Z,6256
2016-12-05T12:13:16.681Z,6164
2016-12-05T12:14:16.888Z,6020
2016-12-05T12:15:16.488Z,6000
2016-12-05T12:16:16.497Z,6128
2016-12-05T12:17:16.482Z,6112
2016-12-05T12:18:17.263Z,5940
2016-12-05T12:19:16.453Z,5764
2016-12-05T12:20:16.589Z,5812
2016-12-05T12:21:16.631Z,5848
2016-12-05T12:22:17.541Z,5796
2016-12-05T12:23:16.835Z,5780
2016-12-05T12:24:16.704Z,5780
2016-12-05T12:25:16.428Z,5884
2016-12-05T12:26:16.403Z,5888
2016-12-05T12:27:16.363Z,5912
2016-12-05T12:28:16.477Z,5944
2016-12-05T12:29:16.527Z,6072
2016-12-05T12:30:16.460Z,6216
2016-12-05T12:31:16.468Z,6284
2016-12-05T12:32:16.530Z,6260
2016-12-05T12:33:16.390Z,6180
2016-12-05T12:34:16.548Z,6132
2016-12-05T12:35:16.362Z,6144
2016-12-05T12:36:16.436Z,6144
2016-12-05T12:37:16.411Z,6028
2016-12-05T12:38:16.462Z,5928
2016-12-05T12:39:16.459Z,5868
2016-12-05T12:40:16.392Z,5916
2016-12-05T12:41:16.415Z,5936
2016-12-05T12:42:16.520Z,5892
2016-12-05T12:43:16.618Z,5804
2016-12-05T12:44:16.490Z,5712
2016-12-05T12:45:16.626Z,5616
2016-12-05T12:46:16.524Z,5532
2016-12-05T12:47:16.350Z,5420
2016-12-05T12:48:16.572Z,5364
2016-12-05T12:49:16.630Z,5288
2016-12-05T12:50:17.161Z,5236
2016-12-05T12:51:16.860Z,5200
2016-12-05T12:52:17.046Z,5116
2016-12-05T12:53:17.251Z,5084
2016-12-05T12:54:16.867Z,5072
2016-12-05T12:55:17.043Z,5036
2016-12-05T12:56:17.000Z,5012
2016-12-05T12:57:16.913Z,4984
2016-12-05T12:58:16.856Z,4960
2016-12-05T12:59:17.073Z,4928
2016-12-05T13:00:17.284Z,4936
2016-12-05T13:01:17.092Z,4944
2016-12-05T13:02:17.213Z,4920
2016-12-05T13:03:17.590Z,4860
2016-12-05T13:04:17.214Z,4808
2016-12-05T13:05:17.581Z,4804
2016-12-05T13:06:17.327Z,4764
2016-12-05T13:07:17.328Z,4760
2016-12-05T13:08:16.526Z,4744
2016-12-05T13:09:16.472Z,4720
2016-12-05T13:10:16.535Z,4696
2016-12-05T13:11:16.468Z,4696
2016-12-05T13:12:16.530Z,4676
2016-12-05T13:13:16.492Z,4676
2016-12-05T13:14:16.505Z,4680
2016-12-05T13:15:16.569Z,4676
2016-12-05T13:16:16.602Z,4656
2016-12-05T13:17:16.573Z,4636
2016-12-05T13:18:16.617Z,4612
2016-12-05T13:19:16.698Z,4580
2016-12-05T13:20:16.694Z,4564
2016-12-05T13:21:16.547Z,4532
2016-12-05T13:22:16.615Z,4508
2016-12-05T13:23:16.481Z,4472
2016-12-05T13:24:16.625Z,4420
2016-12-05T13:25:16.636Z,4392
2016-12-05T13:26:17.018Z,4356
2016-12-05T13:27:16.522Z,4320
2016-12-05T13:28:16.547Z,4268
2016-12-05T13:29:16.506Z,4236
2016-12-05T13:30:16.647Z,4204
2016-12-05T13:31:16.575Z,4176
2016-12-05T13:32:16.574Z,4148
2016-12-05T13:33:16.544Z,4128
2016-12-05T13:34:16.642Z,4084
2016-12-05T13:35:16.532Z,4048
2016-12-05T13:36:16.696Z,4020
2016-12-05T13:37:16.597Z,3976
2016-12-05T13:38:16.685Z,3948
2016-12-05T13:39:16.466Z,3924
2016-12-05T13:40:16.598Z,3900
2016-12-05T13:41:16.539Z,3876
2016-12-05T13:42:16.561Z,3848
2016-12-05T13:43:16.499Z,3812
2016-12-05T13:44:16.549Z,3784
2016-12-05T13:45:16.542Z,3760
2016-12-05T13:46:16.607Z,3740
2016-12-05T13:47:16.566Z,3712
2016-12-05T13:48:16.622Z,3688
2016-12-05T13:49:16.488Z,3664
2016-12-05T13:50:16.635Z,3636
2016-12-05T13:51:16.558Z,3608
2016-12-05T13:52:16.615Z,3592
2016-12-05T13:53:16.580Z,3568
2016-12-05T13:54:16.583Z,3528
2016-12-05T13:55:16.802Z,3492
2016-12-05T13:56:16.638Z,3456
2016-12-05T13:57:16.823Z,3416
2016-12-05T13:58:16.564Z,3376
2016-12-05T13:59:16.593Z,3324
2016-12-05T14:00:16.873Z,3264
2016-12-05T14:01:16.593Z,3216
2016-12-05T14:02:16.547Z,3172
2016-12-05T14:03:16.478Z,3120
2016-12-05T14:04:16.636Z,3064
2016-12-05T14:05:17.249Z,3024
2016-12-05T14:06:16.672Z,2980
2016-12-05T14:07:16.547Z,2940